Terminal Aerodrome Forecast
Issued by NWS Binghamton, NY

Home | Current Version | Previous Version | Text Only | Print | Product List | Glossary On
Versions: 1 2 3 4 5 6 7 8 9 10 11 12 13 14 15 16 17 18 19 20 21 22 23 24 25 26
232
FTUS41 KBGM 282337
TAFBGM
TAF
KBGM 282337Z 2900/2924 23005KT P6SM BKN200
     FM290500 19006KT P6SM -SHRA BKN050 BKN100
     FM290900 19005KT P6SM OVC025
     FM291000 21005KT P6SM OVC015
     FM291900 31008KT P6SM BKN025=

USA.gov is the U.S. government's official web portal to all federal, state and local government web resources and services.